sensor_id;sensor_type;location;lat;lon;timestamp;P1;durP1;ratioP1;P2;durP2;ratioP2
7338;SDS011;33747;49.524;8.390;2022-11-20T00:00:42;26.58;;;17.27;;
7338;SDS011;33747;49.524;8.390;2022-11-20T00:03:08;29.67;;;18.88;;
7338;SDS011;33747;49.524;8.390;2022-11-20T00:05:33;27.88;;;17.85;;
7338;SDS011;33747;49.524;8.390;2022-11-20T00:07:59;29.75;;;18.65;;
7338;SDS011;33747;49.524;8.390;2022-11-20T00:10:24;25.05;;;16.73;;
7338;SDS011;33747;49.524;8.390;2022-11-20T00:12:49;31.98;;;20.10;;
7338;SDS011;33747;49.524;8.390;2022-11-20T00:15:15;28.42;;;17.83;;
7338;SDS011;33747;49.524;8.390;2022-11-20T00:17:40;31.92;;;18.30;;
7338;SDS011;33747;49.524;8.390;2022-11-20T00:20:06;26.00;;;17.45;;
7338;SDS011;33747;49.524;8.390;2022-11-20T00:22:31;28.42;;;18.13;;
7338;SDS011;33747;49.524;8.390;2022-11-20T00:24:57;27.67;;;17.98;;
7338;SDS011;33747;49.524;8.390;2022-11-20T00:27:22;26.90;;;17.55;;
7338;SDS011;33747;49.524;8.390;2022-11-20T00:29:48;26.65;;;17.10;;
7338;SDS011;33747;49.524;8.390;2022-11-20T00:32:13;26.85;;;17.83;;
7338;SDS011;33747;49.524;8.390;2022-11-20T00:34:38;27.27;;;18.67;;
7338;SDS011;33747;49.524;8.390;2022-11-20T00:37:04;26.23;;;16.83;;
7338;SDS011;33747;49.524;8.390;2022-11-20T00:39:29;29.77;;;18.67;;
7338;SDS011;33747;49.524;8.390;2022-11-20T00:41:55;26.45;;;17.65;;
7338;SDS011;33747;49.524;8.390;2022-11-20T00:44:20;26.90;;;18.70;;
7338;SDS011;33747;49.524;8.390;2022-11-20T00:46:45;31.17;;;18.70;;
7338;SDS011;33747;49.524;8.390;2022-11-20T00:49:11;27.90;;;17.33;;
7338;SDS011;33747;49.524;8.390;2022-11-20T00:51:36;30.48;;;18.30;;
7338;SDS011;33747;49.524;8.390;2022-11-20T00:54:01;27.48;;;19.27;;
7338;SDS011;33747;49.524;8.390;2022-11-20T00:56:27;30.90;;;18.15;;
7338;SDS011;33747;49.524;8.390;2022-11-20T00:58:53;26.70;;;18.98;;
7338;SDS011;33747;49.524;8.390;2022-11-20T01:01:20;29.58;;;18.63;;
7338;SDS011;33747;49.524;8.390;2022-11-20T01:03:49;29.70;;;18.65;;
7338;SDS011;33747;49.524;8.390;2022-11-20T01:06:20;30.67;;;18.65;;
7338;SDS011;33747;49.524;8.390;2022-11-20T01:08:46;28.27;;;18.13;;
7338;SDS011;33747;49.524;8.390;2022-11-20T01:11:14;28.17;;;18.48;;
7338;SDS011;33747;49.524;8.390;2022-11-20T01:13:44;29.98;;;18.70;;
7338;SDS011;33747;49.524;8.390;2022-11-20T01:16:14;26.05;;;17.08;;
7338;SDS011;33747;49.524;8.390;2022-11-20T01:18:42;25.85;;;16.15;;
7338;SDS011;33747;49.524;8.390;2022-11-20T01:21:13;26.42;;;18.35;;
7338;SDS011;33747;49.524;8.390;2022-11-20T01:23:41;25.45;;;17.00;;
7338;SDS011;33747;49.524;8.390;2022-11-20T01:26:08;28.23;;;18.55;;
7338;SDS011;33747;49.524;8.390;2022-11-20T01:28:38;27.63;;;17.98;;
7338;SDS011;33747;49.524;8.390;2022-11-20T01:31:10;29.65;;;18.38;;
7338;SDS011;33747;49.524;8.390;2022-11-20T01:33:38;29.92;;;19.05;;
7338;SDS011;33747;49.524;8.390;2022-11-20T01:36:04;26.20;;;17.42;;
7338;SDS011;33747;49.524;8.390;2022-11-20T01:38:30;28.20;;;18.17;;
7338;SDS011;33747;49.524;8.390;2022-11-20T01:40:56;27.23;;;17.80;;
7338;SDS011;33747;49.524;8.390;2022-11-20T01:43:21;30.50;;;17.58;;
7338;SDS011;33747;49.524;8.390;2022-11-20T01:48:44;26.90;;;17.00;;
7338;SDS011;33747;49.524;8.390;2022-11-20T01:51:32;26.40;;;16.25;;
7338;SDS011;33747;49.524;8.390;2022-11-20T01:54:00;28.60;;;17.88;;
7338;SDS011;33747;49.524;8.390;2022-11-20T01:56:27;26.55;;;17.05;;
7338;SDS011;33747;49.524;8.390;2022-11-20T01:58:56;26.52;;;17.98;;
7338;SDS011;33747;49.524;8.390;2022-11-20T02:01:23;25.90;;;17.25;;
7338;SDS011;33747;49.524;8.390;2022-11-20T02:03:49;28.15;;;17.90;;
7338;SDS011;33747;49.524;8.390;2022-11-20T02:06:17;25.50;;;17.10;;
7338;SDS011;33747;49.524;8.390;2022-11-20T02:09:02;25.27;;;16.67;;
7338;SDS011;33747;49.524;8.390;2022-11-20T02:11:27;25.50;;;16.83;;
7338;SDS011;33747;49.524;8.390;2022-11-20T02:13:55;23.77;;;16.38;;
7338;SDS011;33747;49.524;8.390;2022-11-20T02:18:47;25.80;;;17.33;;
7338;SDS011;33747;49.524;8.390;2022-11-20T02:26:30;25.50;;;16.30;;
7338;SDS011;33747;49.524;8.390;2022-11-20T02:28:56;27.80;;;16.77;;
7338;SDS011;33747;49.524;8.390;2022-11-20T02:31:23;29.30;;;17.20;;
7338;SDS011;33747;49.524;8.390;2022-11-20T02:33:53;31.35;;;17.17;;
7338;SDS011;33747;49.524;8.390;2022-11-20T02:36:22;26.70;;;16.60;;
7338;SDS011;33747;49.524;8.390;2022-11-20T02:38:49;28.02;;;16.20;;
7338;SDS011;33747;49.524;8.390;2022-11-20T02:41:15;28.23;;;17.48;;
7338;SDS011;33747;49.524;8.390;2022-11-20T02:43:40;25.60;;;17.13;;
7338;SDS011;33747;49.524;8.390;2022-11-20T02:46:06;25.70;;;16.50;;
7338;SDS011;33747;49.524;8.390;2022-11-20T02:48:32;28.75;;;18.48;;
7338;SDS011;33747;49.524;8.390;2022-11-20T02:50:57;28.27;;;17.38;;
7338;SDS011;33747;49.524;8.390;2022-11-20T02:53:23;28.05;;;18.55;;
7338;SDS011;33747;49.524;8.390;2022-11-20T02:55:48;30.85;;;18.15;;
7338;SDS011;33747;49.524;8.390;2022-11-20T02:58:13;26.92;;;17.55;;
7338;SDS011;33747;49.524;8.390;2022-11-20T03:00:39;25.30;;;17.95;;
7338;SDS011;33747;49.524;8.390;2022-11-20T03:03:04;26.63;;;18.08;;
7338;SDS011;33747;49.524;8.390;2022-11-20T03:05:30;28.38;;;16.42;;
7338;SDS011;33747;49.524;8.390;2022-11-20T03:07:55;25.63;;;17.30;;
7338;SDS011;33747;49.524;8.390;2022-11-20T03:10:20;23.48;;;16.05;;
7338;SDS011;33747;49.524;8.390;2022-11-20T03:12:46;27.17;;;17.50;;
7338;SDS011;33747;49.524;8.390;2022-11-20T03:15:11;24.38;;;17.02;;
7338;SDS011;33747;49.524;8.390;2022-11-20T03:17:37;26.15;;;16.75;;
7338;SDS011;33747;49.524;8.390;2022-11-20T03:20:02;24.80;;;16.95;;
7338;SDS011;33747;49.524;8.390;2022-11-20T03:22:28;27.33;;;17.27;;
7338;SDS011;33747;49.524;8.390;2022-11-20T03:24:54;25.67;;;16.50;;
7338;SDS011;33747;49.524;8.390;2022-11-20T03:27:20;23.52;;;15.30;;
7338;SDS011;33747;49.524;8.390;2022-11-20T03:29:45;25.63;;;17.13;;
7338;SDS011;33747;49.524;8.390;2022-11-20T03:32:11;23.30;;;16.02;;
7338;SDS011;33747;49.524;8.390;2022-11-20T03:34:36;23.35;;;17.02;;
7338;SDS011;33747;49.524;8.390;2022-11-20T03:37:01;28.15;;;16.23;;
7338;SDS011;33747;49.524;8.390;2022-11-20T03:39:27;24.35;;;14.93;;
7338;SDS011;33747;49.524;8.390;2022-11-20T03:41:52;23.33;;;15.73;;
7338;SDS011;33747;49.524;8.390;2022-11-20T03:44:18;24.10;;;14.93;;
7338;SDS011;33747;49.524;8.390;2022-11-20T03:46:46;22.45;;;16.05;;
7338;SDS011;33747;49.524;8.390;2022-11-20T03:49:11;25.30;;;15.93;;
7338;SDS011;33747;49.524;8.390;2022-11-20T03:51:36;23.88;;;15.02;;
7338;SDS011;33747;49.524;8.390;2022-11-20T03:54:03;23.85;;;15.10;;
7338;SDS011;33747;49.524;8.390;2022-11-20T03:56:31;20.77;;;13.98;;
7338;SDS011;33747;49.524;8.390;2022-11-20T03:58:59;21.30;;;14.45;;
7338;SDS011;33747;49.524;8.390;2022-11-20T04:01:26;24.45;;;14.60;;
7338;SDS011;33747;49.524;8.390;2022-11-20T04:03:53;21.17;;;13.82;;
7338;SDS011;33747;49.524;8.390;2022-11-20T04:06:20;24.13;;;14.93;;
7338;SDS011;33747;49.524;8.390;2022-11-20T04:08:50;19.85;;;14.32;;
7338;SDS011;33747;49.524;8.390;2022-11-20T04:11:27;24.13;;;15.25;;
7338;SDS011;33747;49.524;8.390;2022-11-20T04:13:58;21.33;;;14.60;;
7338;SDS011;33747;49.524;8.390;2022-11-20T04:16:24;20.60;;;14.30;;
7338;SDS011;33747;49.524;8.390;2022-11-20T04:18:51;22.45;;;14.50;;
7338;SDS011;33747;49.524;8.390;2022-11-20T04:21:17;22.55;;;14.82;;
7338;SDS011;33747;49.524;8.390;2022-11-20T04:23:43;21.58;;;14.27;;
7338;SDS011;33747;49.524;8.390;2022-11-20T04:26:09;24.58;;;15.85;;
7338;SDS011;33747;49.524;8.390;2022-11-20T04:28:35;22.00;;;14.00;;
7338;SDS011;33747;49.524;8.390;2022-11-20T04:31:02;20.50;;;14.48;;
7338;SDS011;33747;49.524;8.390;2022-11-20T04:33:31;20.65;;;13.82;;
7338;SDS011;33747;49.524;8.390;2022-11-20T04:35:59;21.17;;;14.68;;
7338;SDS011;33747;49.524;8.390;2022-11-20T04:38:26;23.63;;;15.52;;
7338;SDS011;33747;49.524;8.390;2022-11-20T04:40:55;23.30;;;15.05;;
7338;SDS011;33747;49.524;8.390;2022-11-20T04:43:22;18.50;;;13.85;;
7338;SDS011;33747;49.524;8.390;2022-11-20T04:45:51;22.20;;;14.25;;
7338;SDS011;33747;49.524;8.390;2022-11-20T04:48:17;21.67;;;14.68;;
7338;SDS011;33747;49.524;8.390;2022-11-20T04:50:42;21.90;;;14.35;;
7338;SDS011;33747;49.524;8.390;2022-11-20T04:53:08;23.50;;;14.27;;
7338;SDS011;33747;49.524;8.390;2022-11-20T04:55:33;21.63;;;14.38;;
7338;SDS011;33747;49.524;8.390;2022-11-20T04:57:58;21.17;;;15.35;;
7338;SDS011;33747;49.524;8.390;2022-11-20T05:00:24;21.95;;;14.35;;
7338;SDS011;33747;49.524;8.390;2022-11-20T05:02:49;23.55;;;14.63;;
7338;SDS011;33747;49.524;8.390;2022-11-20T05:05:15;19.83;;;14.02;;
7338;SDS011;33747;49.524;8.390;2022-11-20T05:07:40;19.27;;;13.52;;
7338;SDS011;33747;49.524;8.390;2022-11-20T05:10:05;22.98;;;14.15;;
7338;SDS011;33747;49.524;8.390;2022-11-20T05:12:31;22.30;;;15.43;;
7338;SDS011;33747;49.524;8.390;2022-11-20T05:14:56;22.88;;;15.07;;
7338;SDS011;33747;49.524;8.390;2022-11-20T05:17:22;19.33;;;13.27;;
7338;SDS011;33747;49.524;8.390;2022-11-20T05:19:47;19.35;;;13.98;;
7338;SDS011;33747;49.524;8.390;2022-11-20T05:22:13;26.55;;;14.70;;
7338;SDS011;33747;49.524;8.390;2022-11-20T05:24:38;19.25;;;13.50;;
7338;SDS011;33747;49.524;8.390;2022-11-20T05:27:03;21.27;;;13.38;;
7338;SDS011;33747;49.524;8.390;2022-11-20T05:29:29;19.13;;;13.38;;
7338;SDS011;33747;49.524;8.390;2022-11-20T05:31:54;20.90;;;13.30;;
7338;SDS011;33747;49.524;8.390;2022-11-20T05:34:19;20.85;;;13.98;;
7338;SDS011;33747;49.524;8.390;2022-11-20T05:36:45;20.05;;;13.63;;
7338;SDS011;33747;49.524;8.390;2022-11-20T05:39:10;20.73;;;13.38;;
7338;SDS011;33747;49.524;8.390;2022-11-20T05:41:36;20.10;;;14.20;;
7338;SDS011;33747;49.524;8.390;2022-11-20T05:44:01;20.52;;;13.10;;
7338;SDS011;33747;49.524;8.390;2022-11-20T05:46:26;18.40;;;13.05;;
7338;SDS011;33747;49.524;8.390;2022-11-20T05:48:52;19.23;;;13.10;;
7338;SDS011;33747;49.524;8.390;2022-11-20T05:51:18;20.92;;;13.45;;
7338;SDS011;33747;49.524;8.390;2022-11-20T05:53:44;19.83;;;13.13;;
7338;SDS011;33747;49.524;8.390;2022-11-20T05:56:11;20.02;;;13.77;;
7338;SDS011;33747;49.524;8.390;2022-11-20T05:58:40;20.38;;;14.35;;
7338;SDS011;33747;49.524;8.390;2022-11-20T06:03:36;18.10;;;12.55;;
7338;SDS011;33747;49.524;8.390;2022-11-20T06:06:02;19.45;;;12.65;;
7338;SDS011;33747;49.524;8.390;2022-11-20T06:08:28;18.33;;;12.80;;
7338;SDS011;33747;49.524;8.390;2022-11-20T06:10:53;19.63;;;12.15;;
7338;SDS011;33747;49.524;8.390;2022-11-20T06:13:19;16.65;;;12.50;;
7338;SDS011;33747;49.524;8.390;2022-11-20T06:15:48;17.15;;;12.05;;
7338;SDS011;33747;49.524;8.390;2022-11-20T06:18:14;19.23;;;12.38;;
7338;SDS011;33747;49.524;8.390;2022-11-20T06:20:40;20.63;;;12.80;;
7338;SDS011;33747;49.524;8.390;2022-11-20T06:23:05;20.60;;;13.48;;
7338;SDS011;33747;49.524;8.390;2022-11-20T06:25:30;21.00;;;13.85;;
7338;SDS011;33747;49.524;8.390;2022-11-20T06:27:56;21.17;;;13.63;;
7338;SDS011;33747;49.524;8.390;2022-11-20T06:30:21;23.23;;;15.30;;
7338;SDS011;33747;49.524;8.390;2022-11-20T06:32:47;19.85;;;13.15;;
7338;SDS011;33747;49.524;8.390;2022-11-20T06:35:12;21.50;;;15.23;;
7338;SDS011;33747;49.524;8.390;2022-11-20T06:37:37;20.98;;;14.07;;
7338;SDS011;33747;49.524;8.390;2022-11-20T06:40:03;23.13;;;15.50;;
7338;SDS011;33747;49.524;8.390;2022-11-20T06:42:28;25.10;;;15.45;;
7338;SDS011;33747;49.524;8.390;2022-11-20T06:44:54;23.85;;;15.50;;
7338;SDS011;33747;49.524;8.390;2022-11-20T06:47:19;23.73;;;15.10;;
7338;SDS011;33747;49.524;8.390;2022-11-20T06:49:45;25.10;;;15.50;;
7338;SDS011;33747;49.524;8.390;2022-11-20T06:52:10;25.88;;;16.30;;
7338;SDS011;33747;49.524;8.390;2022-11-20T06:54:35;23.13;;;15.68;;
7338;SDS011;33747;49.524;8.390;2022-11-20T06:57:01;29.33;;;16.40;;
7338;SDS011;33747;49.524;8.390;2022-11-20T06:59:26;27.45;;;17.52;;
7338;SDS011;33747;49.524;8.390;2022-11-20T07:01:51;27.42;;;17.27;;
7338;SDS011;33747;49.524;8.390;2022-11-20T07:04:17;27.75;;;18.25;;
7338;SDS011;33747;49.524;8.390;2022-11-20T07:06:42;27.83;;;18.45;;
7338;SDS011;33747;49.524;8.390;2022-11-20T07:09:08;30.15;;;18.63;;
7338;SDS011;33747;49.524;8.390;2022-11-20T07:11:33;27.33;;;17.95;;
7338;SDS011;33747;49.524;8.390;2022-11-20T07:13:58;26.15;;;16.80;;
7338;SDS011;33747;49.524;8.390;2022-11-20T07:16:24;31.77;;;18.17;;
7338;SDS011;33747;49.524;8.390;2022-11-20T07:18:49;27.38;;;17.42;;
7338;SDS011;33747;49.524;8.390;2022-11-20T07:21:14;26.42;;;16.70;;
7338;SDS011;33747;49.524;8.390;2022-11-20T07:23:40;27.88;;;17.27;;
7338;SDS011;33747;49.524;8.390;2022-11-20T07:26:06;27.52;;;17.85;;
7338;SDS011;33747;49.524;8.390;2022-11-20T07:28:32;28.13;;;17.25;;
7338;SDS011;33747;49.524;8.390;2022-11-20T07:30:58;28.35;;;17.83;;
7338;SDS011;33747;49.524;8.390;2022-11-20T07:33:23;30.25;;;19.30;;
7338;SDS011;33747;49.524;8.390;2022-11-20T07:35:49;27.98;;;17.80;;
7338;SDS011;33747;49.524;8.390;2022-11-20T07:38:14;28.23;;;17.85;;
7338;SDS011;33747;49.524;8.390;2022-11-20T07:40:40;27.30;;;18.75;;
7338;SDS011;33747;49.524;8.390;2022-11-20T07:43:05;27.77;;;17.35;;
7338;SDS011;33747;49.524;8.390;2022-11-20T07:45:30;25.40;;;17.08;;
7338;SDS011;33747;49.524;8.390;2022-11-20T07:47:56;29.20;;;18.08;;
7338;SDS011;33747;49.524;8.390;2022-11-20T07:50:21;32.67;;;18.98;;
7338;SDS011;33747;49.524;8.390;2022-11-20T07:52:47;33.55;;;22.45;;
7338;SDS011;33747;49.524;8.390;2022-11-20T07:55:12;33.72;;;21.65;;
7338;SDS011;33747;49.524;8.390;2022-11-20T07:57:37;34.40;;;20.13;;
7338;SDS011;33747;49.524;8.390;2022-11-20T08:00:04;28.10;;;18.15;;
7338;SDS011;33747;49.524;8.390;2022-11-20T08:02:30;27.25;;;17.35;;
7338;SDS011;33747;49.524;8.390;2022-11-20T08:04:55;26.92;;;18.08;;
7338;SDS011;33747;49.524;8.390;2022-11-20T08:07:21;28.83;;;19.50;;
7338;SDS011;33747;49.524;8.390;2022-11-20T08:09:46;31.48;;;18.27;;
7338;SDS011;33747;49.524;8.390;2022-11-20T08:12:16;28.90;;;19.15;;
7338;SDS011;33747;49.524;8.390;2022-11-20T08:15:02;28.23;;;18.38;;
7338;SDS011;33747;49.524;8.390;2022-11-20T08:17:28;28.90;;;17.08;;
7338;SDS011;33747;49.524;8.390;2022-11-20T08:19:53;31.80;;;19.27;;
7338;SDS011;33747;49.524;8.390;2022-11-20T08:22:18;31.00;;;19.40;;
7338;SDS011;33747;49.524;8.390;2022-11-20T08:24:45;32.50;;;19.58;;
7338;SDS011;33747;49.524;8.390;2022-11-20T08:27:10;32.42;;;20.27;;
7338;SDS011;33747;49.524;8.390;2022-11-20T08:29:36;30.48;;;19.05;;
7338;SDS011;33747;49.524;8.390;2022-11-20T08:32:01;31.77;;;21.27;;
7338;SDS011;33747;49.524;8.390;2022-11-20T08:34:26;30.85;;;19.17;;
7338;SDS011;33747;49.524;8.390;2022-11-20T08:36:52;29.67;;;18.65;;
7338;SDS011;33747;49.524;8.390;2022-11-20T08:39:17;35.75;;;21.60;;
7338;SDS011;33747;49.524;8.390;2022-11-20T08:41:42;29.45;;;18.08;;
7338;SDS011;33747;49.524;8.390;2022-11-20T08:44:08;31.05;;;19.20;;
7338;SDS011;33747;49.524;8.390;2022-11-20T08:46:37;37.72;;;19.50;;
7338;SDS011;33747;49.524;8.390;2022-11-20T08:49:08;34.28;;;19.40;;
7338;SDS011;33747;49.524;8.390;2022-11-20T08:51:35;36.17;;;21.50;;
7338;SDS011;33747;49.524;8.390;2022-11-20T08:54:00;35.33;;;21.15;;
7338;SDS011;33747;49.524;8.390;2022-11-20T08:56:26;40.38;;;21.92;;
7338;SDS011;33747;49.524;8.390;2022-11-20T08:58:51;42.20;;;22.48;;
7338;SDS011;33747;49.524;8.390;2022-11-20T09:01:17;35.10;;;20.10;;
7338;SDS011;33747;49.524;8.390;2022-11-20T09:03:43;43.53;;;22.02;;
7338;SDS011;33747;49.524;8.390;2022-11-20T09:06:09;36.42;;;21.77;;
7338;SDS011;33747;49.524;8.390;2022-11-20T09:08:34;36.97;;;21.70;;
7338;SDS011;33747;49.524;8.390;2022-11-20T09:11:01;36.70;;;21.90;;
7338;SDS011;33747;49.524;8.390;2022-11-20T09:13:27;41.42;;;21.90;;
7338;SDS011;33747;49.524;8.390;2022-11-20T09:15:57;39.90;;;20.70;;
7338;SDS011;33747;49.524;8.390;2022-11-20T09:18:33;36.78;;;21.52;;
7338;SDS011;33747;49.524;8.390;2022-11-20T09:21:01;35.15;;;20.90;;
7338;SDS011;33747;49.524;8.390;2022-11-20T09:23:30;39.45;;;21.25;;
7338;SDS011;33747;49.524;8.390;2022-11-20T09:25:56;37.08;;;22.58;;
7338;SDS011;33747;49.524;8.390;2022-11-20T09:28:24;36.28;;;21.25;;
7338;SDS011;33747;49.524;8.390;2022-11-20T09:30:50;32.15;;;19.15;;
7338;SDS011;33747;49.524;8.390;2022-11-20T09:33:16;30.17;;;18.63;;
7338;SDS011;33747;49.524;8.390;2022-11-20T09:35:42;32.78;;;19.30;;
7338;SDS011;33747;49.524;8.390;2022-11-20T09:38:08;32.75;;;19.55;;
7338;SDS011;33747;49.524;8.390;2022-11-20T09:40:36;34.25;;;19.58;;
7338;SDS011;33747;49.524;8.390;2022-11-20T09:43:07;29.45;;;18.08;;
7338;SDS011;33747;49.524;8.390;2022-11-20T09:51:15;35.22;;;18.92;;
7338;SDS011;33747;49.524;8.390;2022-11-20T09:54:03;29.92;;;18.00;;
7338;SDS011;33747;49.524;8.390;2022-11-20T09:56:40;32.28;;;19.85;;
7338;SDS011;33747;49.524;8.390;2022-11-20T09:59:08;32.00;;;20.13;;
7338;SDS011;33747;49.524;8.390;2022-11-20T10:01:43;35.63;;;19.52;;
7338;SDS011;33747;49.524;8.390;2022-11-20T10:06:53;32.05;;;19.92;;
7338;SDS011;33747;49.524;8.390;2022-11-20T10:09:32;32.17;;;19.25;;
7338;SDS011;33747;49.524;8.390;2022-11-20T10:17:29;32.35;;;19.48;;
7338;SDS011;33747;49.524;8.390;2022-11-20T10:20:14;30.17;;;18.45;;
7338;SDS011;33747;49.524;8.390;2022-11-20T10:22:47;33.10;;;19.17;;
7338;SDS011;33747;49.524;8.390;2022-11-20T10:26:14;32.58;;;19.25;;
7338;SDS011;33747;49.524;8.390;2022-11-20T10:31:34;31.05;;;19.35;;
7338;SDS011;33747;49.524;8.390;2022-11-20T10:37:04;30.00;;;19.05;;
7338;SDS011;33747;49.524;8.390;2022-11-20T10:39:39;31.55;;;18.55;;
7338;SDS011;33747;49.524;8.390;2022-11-20T10:42:08;30.40;;;18.98;;
7338;SDS011;33747;49.524;8.390;2022-11-20T10:44:36;31.77;;;19.20;;
7338;SDS011;33747;49.524;8.390;2022-11-20T10:47:21;30.77;;;18.67;;
7338;SDS011;33747;49.524;8.390;2022-11-20T10:49:51;29.00;;;17.85;;
7338;SDS011;33747;49.524;8.390;2022-11-20T10:57:46;31.25;;;20.33;;
7338;SDS011;33747;49.524;8.390;2022-11-20T11:00:33;33.88;;;19.92;;
7338;SDS011;33747;49.524;8.390;2022-11-20T11:02:59;32.00;;;20.85;;
7338;SDS011;33747;49.524;8.390;2022-11-20T11:07:54;35.13;;;20.48;;
7338;SDS011;33747;49.524;8.390;2022-11-20T11:10:36;30.40;;;19.10;;
7338;SDS011;33747;49.524;8.390;2022-11-20T11:13:06;28.85;;;19.77;;
7338;SDS011;33747;49.524;8.390;2022-11-20T11:15:38;29.85;;;18.98;;
7338;SDS011;33747;49.524;8.390;2022-11-20T11:18:07;32.47;;;20.40;;
7338;SDS011;33747;49.524;8.390;2022-11-20T11:20:34;35.75;;;21.77;;
7338;SDS011;33747;49.524;8.390;2022-11-20T11:22:59;35.67;;;20.85;;
7338;SDS011;33747;49.524;8.390;2022-11-20T11:25:26;30.90;;;19.33;;
7338;SDS011;33747;49.524;8.390;2022-11-20T11:27:52;31.63;;;19.27;;
7338;SDS011;33747;49.524;8.390;2022-11-20T11:30:20;27.75;;;17.33;;
7338;SDS011;33747;49.524;8.390;2022-11-20T11:32:45;23.55;;;17.05;;
7338;SDS011;33747;49.524;8.390;2022-11-20T11:35:27;26.13;;;16.98;;
7338;SDS011;33747;49.524;8.390;2022-11-20T11:37:54;23.10;;;15.55;;
7338;SDS011;33747;49.524;8.390;2022-11-20T11:40:28;22.85;;;15.55;;
7338;SDS011;33747;49.524;8.390;2022-11-20T11:42:57;27.33;;;15.93;;
7338;SDS011;33747;49.524;8.390;2022-11-20T11:45:24;24.05;;;16.50;;
7338;SDS011;33747;49.524;8.390;2022-11-20T11:47:51;27.40;;;16.95;;
7338;SDS011;33747;49.524;8.390;2022-11-20T11:50:24;25.90;;;17.25;;
7338;SDS011;33747;49.524;8.390;2022-11-20T11:55:47;26.38;;;17.05;;
7338;SDS011;33747;49.524;8.390;2022-11-20T11:58:41;27.45;;;18.08;;
7338;SDS011;33747;49.524;8.390;2022-11-20T12:01:21;26.90;;;17.23;;
7338;SDS011;33747;49.524;8.390;2022-11-20T12:06:36;26.60;;;17.83;;
7338;SDS011;33747;49.524;8.390;2022-11-20T12:09:05;27.65;;;17.08;;
7338;SDS011;33747;49.524;8.390;2022-11-20T12:14:30;23.25;;;15.48;;
7338;SDS011;33747;49.524;8.390;2022-11-20T12:17:00;25.65;;;16.58;;
7338;SDS011;33747;49.524;8.390;2022-11-20T12:19:26;25.10;;;17.20;;
7338;SDS011;33747;49.524;8.390;2022-11-20T12:30:07;32.80;;;22.40;;
7338;SDS011;33747;49.524;8.390;2022-11-20T12:38:15;29.02;;;18.25;;
7338;SDS011;33747;49.524;8.390;2022-11-20T12:41:00;27.98;;;18.17;;
7338;SDS011;33747;49.524;8.390;2022-11-20T12:43:36;29.02;;;18.73;;
7338;SDS011;33747;49.524;8.390;2022-11-20T12:49:14;38.10;;;20.10;;
7338;SDS011;33747;49.524;8.390;2022-11-20T12:52:00;26.95;;;18.38;;
7338;SDS011;33747;49.524;8.390;2022-11-20T12:54:42;26.65;;;18.40;;
7338;SDS011;33747;49.524;8.390;2022-11-20T12:57:29;26.67;;;17.33;;
7338;SDS011;33747;49.524;8.390;2022-11-20T13:00:15;33.03;;;20.50;;
7338;SDS011;33747;49.524;8.390;2022-11-20T13:06:03;28.92;;;19.30;;
7338;SDS011;33747;49.524;8.390;2022-11-20T13:08:35;28.02;;;17.08;;
7338;SDS011;33747;49.524;8.390;2022-11-20T13:11:15;22.17;;;15.20;;
7338;SDS011;33747;49.524;8.390;2022-11-20T13:16:33;16.50;;;9.43;;
7338;SDS011;33747;49.524;8.390;2022-11-20T13:19:26;17.38;;;8.70;;
7338;SDS011;33747;49.524;8.390;2022-11-20T13:21:53;12.82;;;5.97;;
7338;SDS011;33747;49.524;8.390;2022-11-20T13:26:44;7.65;;;4.13;;
7338;SDS011;33747;49.524;8.390;2022-11-20T13:29:17;6.70;;;2.92;;
7338;SDS011;33747;49.524;8.390;2022-11-20T13:31:44;7.85;;;3.10;;
7338;SDS011;33747;49.524;8.390;2022-11-20T13:34:12;8.98;;;2.88;;
7338;SDS011;33747;49.524;8.390;2022-11-20T13:36:48;7.43;;;3.13;;
7338;SDS011;33747;49.524;8.390;2022-11-20T13:39:23;7.07;;;3.00;;
7338;SDS011;33747;49.524;8.390;2022-11-20T13:41:56;6.50;;;2.95;;
7338;SDS011;33747;49.524;8.390;2022-11-20T13:44:39;10.18;;;2.80;;
7338;SDS011;33747;49.524;8.390;2022-11-20T13:47:20;5.43;;;2.50;;
7338;SDS011;33747;49.524;8.390;2022-11-20T13:49:46;5.80;;;2.50;;
7338;SDS011;33747;49.524;8.390;2022-11-20T13:52:28;5.55;;;2.60;;
7338;SDS011;33747;49.524;8.390;2022-11-20T14:00:41;8.65;;;2.85;;
7338;SDS011;33747;49.524;8.390;2022-11-20T14:03:12;10.48;;;2.80;;
7338;SDS011;33747;49.524;8.390;2022-11-20T14:05:49;7.45;;;3.38;;
7338;SDS011;33747;49.524;8.390;2022-11-20T14:08:25;8.93;;;4.88;;
7338;SDS011;33747;49.524;8.390;2022-11-20T14:11:02;8.40;;;3.90;;
7338;SDS011;33747;49.524;8.390;2022-11-20T14:16:30;9.00;;;4.40;;
7338;SDS011;33747;49.524;8.390;2022-11-20T14:18:57;6.82;;;2.90;;
7338;SDS011;33747;49.524;8.390;2022-11-20T14:21:24;3.63;;;1.60;;
7338;SDS011;33747;49.524;8.390;2022-11-20T14:24:03;8.65;;;2.20;;
7338;SDS011;33747;49.524;8.390;2022-11-20T14:26:29;6.18;;;2.20;;
7338;SDS011;33747;49.524;8.390;2022-11-20T14:28:54;5.07;;;1.52;;
7338;SDS011;33747;49.524;8.390;2022-11-20T14:31:22;4.18;;;1.95;;
7338;SDS011;33747;49.524;8.390;2022-11-20T14:33:49;2.65;;;1.80;;
7338;SDS011;33747;49.524;8.390;2022-11-20T14:36:18;9.20;;;2.15;;
7338;SDS011;33747;49.524;8.390;2022-11-20T14:38:45;5.13;;;2.15;;
7338;SDS011;33747;49.524;8.390;2022-11-20T14:41:21;4.10;;;1.85;;
7338;SDS011;33747;49.524;8.390;2022-11-20T14:43:57;3.10;;;1.67;;
7338;SDS011;33747;49.524;8.390;2022-11-20T14:46:22;8.75;;;2.13;;
7338;SDS011;33747;49.524;8.390;2022-11-20T14:48:53;5.65;;;1.52;;
7338;SDS011;33747;49.524;8.390;2022-11-20T14:54:08;7.55;;;1.67;;
7338;SDS011;33747;49.524;8.390;2022-11-20T14:56:37;2.83;;;1.52;;
7338;SDS011;33747;49.524;8.390;2022-11-20T14:59:03;1.58;;;1.20;;
7338;SDS011;33747;49.524;8.390;2022-11-20T15:01:29;6.28;;;1.20;;
7338;SDS011;33747;49.524;8.390;2022-11-20T15:04:13;2.03;;;0.95;;
7338;SDS011;33747;49.524;8.390;2022-11-20T15:06:48;5.35;;;1.45;;
7338;SDS011;33747;49.524;8.390;2022-11-20T15:09:15;4.15;;;1.23;;
7338;SDS011;33747;49.524;8.390;2022-11-20T15:11:41;4.57;;;1.40;;
7338;SDS011;33747;49.524;8.390;2022-11-20T15:14:17;2.92;;;1.20;;
7338;SDS011;33747;49.524;8.390;2022-11-20T15:16:42;3.92;;;1.23;;
7338;SDS011;33747;49.524;8.390;2022-11-20T15:19:13;2.22;;;1.10;;
7338;SDS011;33747;49.524;8.390;2022-11-20T15:21:42;4.95;;;1.83;;
7338;SDS011;33747;49.524;8.390;2022-11-20T15:24:08;9.65;;;1.65;;
7338;SDS011;33747;49.524;8.390;2022-11-20T15:26:34;5.68;;;1.63;;
7338;SDS011;33747;49.524;8.390;2022-11-20T15:28:59;4.20;;;2.08;;
7338;SDS011;33747;49.524;8.390;2022-11-20T15:31:25;4.22;;;2.00;;
7338;SDS011;33747;49.524;8.390;2022-11-20T15:33:50;7.03;;;1.95;;
7338;SDS011;33747;49.524;8.390;2022-11-20T15:36:16;7.97;;;1.70;;
7338;SDS011;33747;49.524;8.390;2022-11-20T15:38:41;5.70;;;1.75;;
7338;SDS011;33747;49.524;8.390;2022-11-20T15:41:07;5.13;;;1.80;;
7338;SDS011;33747;49.524;8.390;2022-11-20T15:43:32;3.72;;;1.50;;
7338;SDS011;33747;49.524;8.390;2022-11-20T15:46:11;5.05;;;1.40;;
7338;SDS011;33747;49.524;8.390;2022-11-20T15:48:39;8.65;;;1.58;;
7338;SDS011;33747;49.524;8.390;2022-11-20T15:53:35;8.82;;;2.10;;
7338;SDS011;33747;49.524;8.390;2022-11-20T15:56:01;1.77;;;1.17;;
7338;SDS011;33747;49.524;8.390;2022-11-20T15:58:26;3.50;;;1.52;;
7338;SDS011;33747;49.524;8.390;2022-11-20T16:00:52;2.78;;;1.40;;
7338;SDS011;33747;49.524;8.390;2022-11-20T16:03:18;3.33;;;1.67;;
7338;SDS011;33747;49.524;8.390;2022-11-20T16:05:43;6.03;;;2.00;;
7338;SDS011;33747;49.524;8.390;2022-11-20T16:08:09;2.15;;;1.42;;
7338;SDS011;33747;49.524;8.390;2022-11-20T16:10:34;2.88;;;1.30;;
7338;SDS011;33747;49.524;8.390;2022-11-20T16:13:00;2.42;;;1.30;;